Time;durP1;ratioP1;P1;durP2;ratioP2;P2;SDS_P1;SDS_P2;PMS_P1;PMS_P2;Temp;Humidity;BMP_temperature;BMP_pressure;BME280_temperature;BME280_humidity;BME280_pressure;Samples;Min_cycle;Max_cycle;Signal;HPM_P1;HPM_P2
2022/03/16 00:00:25;;;;;;;54.47;14.00;;;;;;;3.32;100.00;99900.56;5070371;28;20285;-78
2022/03/16 00:02:54;;;;;;;216.37;21.63;;;;;;;3.32;100.00;99900.56;5069716;28;20221;-78
2022/03/16 00:05:24;;;;;;;146.07;18.37;;;;;;;3.27;100.00;99905.88;5072479;28;20653;-78
2022/03/16 00:07:54;;;;;;;91.57;15.97;;;;;;;3.13;100.00;99914.06;5087713;28;20279;-78
2022/03/16 00:10:28;;;;;;;98.90;15.53;;;;;;;3.13;100.00;99915.81;5088904;28;20198;-78
2022/03/16 00:12:59;;;;;;;33.13;13.20;;;;;;;3.17;100.00;99920.06;5104629;27;20280;-78
2022/03/16 00:15:27;;;;;;;55.90;14.80;;;;;;;3.21;100.00;99918.28;5151782;27;20197;-78
2022/03/16 00:17:56;;;;;;;62.33;16.13;;;;;;;3.12;100.00;99917.56;5154727;27;20186;-79
2022/03/16 00:20:24;;;;;;;68.03;18.10;;;;;;;3.24;100.00;99919.06;5155163;27;20197;-78
2022/03/16 00:22:53;;;;;;;43.93;16.83;;;;;;;3.28;100.00;99925.06;5151735;27;20217;-78
2022/03/16 00:25:23;;;;;;;84.77;17.47;;;;;;;3.28;100.00;99922.44;5149518;27;20197;-78
2022/03/16 00:27:54;;;;;;;38.50;14.33;;;;;;;3.32;100.00;99931.97;5148130;27;20190;-78
2022/03/16 00:30:22;;;;;;;70.73;15.53;;;;;;;3.29;100.00;99930.28;5110638;27;20198;-78
2022/03/16 00:32:51;;;;;;;52.07;14.47;;;;;;;3.39;100.00;99936.19;5149641;27;20204;-78
2022/03/16 00:35:20;;;;;;;39.90;13.97;;;;;;;3.39;100.00;99937.06;5147507;27;20197;-78
2022/03/16 00:37:49;;;;;;;41.97;13.63;;;;;;;3.44;100.00;99942.16;5147838;27;20198;-78
2022/03/16 00:40:19;;;;;;;17.10;12.13;;;;;;;3.41;100.00;99952.72;5110226;28;20203;-78
2022/03/16 00:42:52;;;;;;;46.80;13.93;;;;;;;3.50;100.00;99954.28;5047352;28;20287;-78
2022/03/16 00:45:22;;;;;;;36.23;14.10;;;;;;;3.32;100.00;99951.16;5012804;28;20195;-78
2022/03/16 00:47:51;;;;;;;109.07;17.47;;;;;;;3.32;100.00;99951.16;5018684;28;20220;-79
2022/03/16 00:50:20;;;;;;;49.83;14.23;;;;;;;3.11;100.00;99946.41;5032374;28;20361;-78
2022/03/16 00:52:50;;;;;;;41.37;12.93;;;;;;;3.25;100.00;99956.56;5028271;28;20194;-78
2022/03/16 00:55:19;;;;;;;66.30;13.83;;;;;;;3.20;100.00;99956.66;5029112;28;20194;-78
2022/03/16 00:57:47;;;;;;;74.73;14.80;;;;;;;3.10;100.00;99960.38;5033365;28;20203;-80
2022/03/16 01:00:18;;;;;;;49.97;13.87;;;;;;;3.17;100.00;99954.09;5073200;28;20192;-78
2022/03/16 01:02:49;;;;;;;73.77;15.03;;;;;;;3.14;100.00;99949.78;5074664;28;20213;-78
2022/03/16 01:05:17;;;;;;;51.73;14.03;;;;;;;3.15;100.00;99941.03;5066520;28;20336;-78
2022/03/16 01:07:46;;;;;;;78.37;16.73;;;;;;;3.15;100.00;99941.03;5072380;28;20224;-79
2022/03/16 01:10:17;;;;;;;32.00;13.33;;;;;;;3.15;100.00;99941.03;5064481;28;20200;-78
2022/03/16 01:12:46;;;;;;;54.37;14.47;;;;;;;3.15;100.00;99948.91;5064459;28;20238;-78
2022/03/16 01:15:15;;;;;;;82.30;16.03;;;;;;;3.11;100.00;99946.41;5068126;28;20188;-78
2022/03/16 01:17:43;;;;;;;86.80;16.07;;;;;;;3.14;100.00;99951.56;5039714;28;20197;-78
2022/03/16 01:20:14;;;;;;;142.97;18.73;;;;;;;2.90;100.00;99944.22;5084638;28;20715;-78
2022/03/16 01:22:43;;;;;;;115.47;17.03;;;;;;;2.94;100.00;99949.34;5111572;27;20224;-78
2022/03/16 01:25:12;;;;;;;133.00;17.07;;;;;;;2.92;100.00;99945.91;5135824;27;20182;-78
2022/03/16 01:27:40;;;;;;;116.90;17.13;;;;;;;2.81;100.00;99930.44;5128579;27;20198;-78
2022/03/16 01:30:10;;;;;;;135.67;17.57;;;;;;;2.78;100.00;99924.38;5136095;27;20194;-78
2022/03/16 01:32:39;;;;;;;110.97;16.70;;;;;;;2.67;100.00;99928.97;5131318;27;20220;-77
2022/03/16 01:35:10;;;;;;;88.43;15.23;;;;;;;2.80;100.00;99947.03;5132572;27;20198;-78
2022/03/16 01:37:42;;;;;;;146.60;19.77;;;;;;;2.41;100.00;99955.59;5137409;27;20190;-77
2022/03/16 01:40:12;;;;;;;102.70;17.70;;;;;;;2.16;100.00;99965.63;5137589;27;20201;-77
2022/03/16 01:42:42;;;;;;;107.47;17.00;;;;;;;2.19;100.00;99955.97;5125797;27;20289;-78
2022/03/16 01:45:10;;;;;;;102.47;18.30;;;;;;;2.25;100.00;99966.34;5131503;27;20630;-78
2022/03/16 01:47:39;;;;;;;108.63;18.13;;;;;;;2.14;100.00;99967.41;5161021;27;20235;-77
2022/03/16 01:50:12;;;;;;;81.23;17.87;;;;;;;2.26;100.00;99962.84;5169802;27;20189;-78
2022/03/16 01:52:42;;;;;;;34.77;15.10;;;;;;;2.57;100.00;99964.88;5163703;27;20683;-77
2022/03/16 01:55:10;;;;;;;31.97;15.73;;;;;;;2.73;100.00;99958.50;5169517;27;20193;-77
2022/03/16 01:57:46;;;;;;;62.93;17.47;;;;;;;2.81;100.00;99958.34;5181524;27;20187;-78
2022/03/16 02:00:17;;;;;;;48.13;16.20;;;;;;;2.87;100.00;99960.81;5179616;27;20199;-78
2022/03/16 02:02:47;;;;;;;32.90;14.57;;;;;;;2.92;100.00;99958.13;5170525;27;20265;-78
2022/03/16 02:05:15;;;;;;;50.17;15.47;;;;;;;2.94;100.00;99967.66;5090401;28;20214;-79
2022/03/16 02:07:46;;;;;;;76.17;17.17;;;;;;;2.97;100.00;99964.97;5091272;28;20690;-78
2022/03/16 02:10:17;;;;;;;56.00;16.47;;;;;;;3.02;100.00;99971.00;5093717;28;20218;-78
2022/03/16 02:12:47;;;;;;;53.97;16.10;;;;;;;2.98;100.00;99973.69;5089686;28;20199;-78
2022/03/16 02:15:15;;;;;;;83.23;17.47;;;;;;;2.92;100.00;99973.81;5096267;28;20192;-78
2022/03/16 02:17:45;;;;;;;60.07;16.30;;;;;;;3.01;100.00;99964.03;5093532;28;20197;-79
2022/03/16 02:20:14;;;;;;;24.57;14.40;;;;;;;3.03;100.00;99959.63;5086322;28;20207;-78
2022/03/16 02:22:56;;;;;;;50.73;17.23;;;;;;;3.16;100.00;99942.75;5103133;27;20208;-78
2022/03/16 02:25:27;;;;;;;44.33;16.07;;;;;;;3.27;100.00;99939.91;5173750;27;20200;-78
2022/03/16 02:27:58;;;;;;;60.00;17.47;;;;;;;3.08;100.00;99946.44;5109065;28;20569;-78
2022/03/16 02:30:28;;;;;;;27.40;14.67;;;;;;;3.15;100.00;99945.41;5050049;28;20197;-78
2022/03/16 02:32:58;;;;;;;88.80;18.37;;;;;;;2.96;100.00;99957.16;5047650;28;20663;-78
2022/03/16 02:35:31;;;;;;;107.03;19.70;;;;;;;2.93;100.00;99963.31;5046937;28;20243;-78
2022/03/16 02:38:02;;;;;;;123.83;20.20;;;;;;;2.95;100.00;99960.69;5047387;28;20189;-78
2022/03/16 02:40:33;;;;;;;37.17;14.60;;;;;;;3.02;100.00;99955.28;5043943;28;20189;-78
2022/03/16 02:43:02;;;;;;;111.47;18.37;;;;;;;2.96;100.00;99955.41;4972841;28;20259;-78
2022/03/16 02:45:31;;;;;;;71.83;17.20;;;;;;;3.05;100.00;99959.59;4952343;28;20185;-78
2022/03/16 02:48:01;;;;;;;95.33;18.33;;;;;;;2.84;100.00;99953.91;5012442;28;20297;-78
2022/03/16 02:50:31;;;;;;;37.70;15.13;;;;;;;3.13;100.00;99953.31;5053850;28;20196;-78
2022/03/16 02:53:02;;;;;;;45.37;16.30;;;;;;;3.08;100.00;99952.53;5029482;28;20194;-78
2022/03/16 02:55:45;;;;;;;66.03;15.73;;;;;;;3.04;100.00;99960.50;5029366;28;20194;-78
2022/03/16 02:58:15;;;;;;;171.43;21.60;;;;;;;2.77;100.00;99969.75;5025735;28;20201;-78
2022/03/16 03:00:44;;;;;;;36.50;14.90;;;;;;;2.87;100.00;99968.66;5028377;28;20272;-78
2022/03/16 03:03:13;;;;;;;44.43;14.67;;;;;;;3.02;100.00;99965.75;5026121;28;20300;-78
2022/03/16 03:05:43;;;;;;;44.73;15.50;;;;;;;3.00;100.00;99972.78;5027657;28;20228;-78
2022/03/16 03:08:12;;;;;;;44.03;15.07;;;;;;;3.01;100.00;99965.78;4996224;28;20202;-78
2022/03/16 03:10:41;;;;;;;159.50;19.23;;;;;;;2.78;100.00;99966.22;5045147;28;20196;-77
2022/03/16 03:13:11;;;;;;;110.33;17.50;;;;;;;2.80;100.00;99969.72;5095804;27;20194;-78
2022/03/16 03:15:42;;;;;;;137.60;17.60;;;;;;;2.74;100.00;99967.19;5168850;27;20185;-78
2022/03/16 03:18:11;;;;;;;101.07;16.40;;;;;;;2.76;100.00;99960.19;5172887;27;20192;-78
2022/03/16 03:20:39;;;;;;;17.07;12.27;;;;;;;2.77;100.00;99967.13;5071153;28;20261;-78
2022/03/16 03:23:10;;;;;;;15.83;11.90;;;;;;;2.93;100.00;99968.56;5053787;28;20212;-78
2022/03/16 03:25:42;;;;;;;124.10;18.50;;;;;;;2.71;100.00;99980.34;5067304;28;20275;-78
2022/03/16 03:28:12;;;;;;;131.53;17.23;;;;;;;2.67;100.00;99971.66;5064140;28;20196;-78
2022/03/16 03:30:40;;;;;;;74.50;15.13;;;;;;;2.68;100.00;99968.16;5062551;28;20204;-78
2022/03/16 03:33:10;;;;;;;97.27;17.47;;;;;;;2.64;100.00;99974.34;5060244;28;20200;-78
2022/03/16 03:35:39;;;;;;;101.13;16.80;;;;;;;2.64;100.00;99974.34;5065234;28;20197;-78
2022/03/16 03:38:09;;;;;;;101.13;15.17;;;;;;;2.40;100.00;99977.41;5087520;27;20189;-78
2022/03/16 03:40:44;;;;;;;180.37;18.90;;;;;;;2.26;100.00;99975.03;5104235;27;20196;-78
2022/03/16 03:43:13;;;;;;;89.13;14.50;;;;;;;2.49;100.00;99977.22;5171544;27;20212;-78
2022/03/16 03:45:43;;;;;;;44.57;13.83;;;;;;;2.50;100.00;99968.50;5175372;27;20196;-78
2022/03/16 03:48:14;;;;;;;59.33;14.63;;;;;;;2.61;100.00;99963.09;5165360;27;20219;-78
2022/03/16 03:50:45;;;;;;;59.87;14.63;;;;;;;2.54;100.00;99967.56;5169295;27;20181;-78
2022/03/16 03:53:15;;;;;;;29.67;12.77;;;;;;;2.65;100.00;99968.22;5106372;28;20669;-78
2022/03/16 03:55:45;;;;;;;24.17;12.37;;;;;;;2.73;100.00;99966.34;5106320;28;20283;-78
2022/03/16 03:58:13;;;;;;;31.40;12.73;;;;;;;2.65;100.00;99960.38;5105364;28;20207;-78
2022/03/16 04:00:43;;;;;;;39.27;13.10;;;;;;;2.65;100.00;99970.84;5110880;28;20236;-77
2022/03/16 04:03:11;;;;;;;58.50;14.73;;;;;;;2.45;100.00;99972.97;5111552;28;20196;-78
2022/03/16 04:05:40;;;;;;;39.33;12.67;;;;;;;2.47;100.00;99965.94;5111077;28;20188;-78
2022/03/16 04:08:10;;;;;;;24.30;12.60;;;;;;;2.47;100.00;99972.03;5073102;28;20192;-78
2022/03/16 04:10:46;;;;;;;48.93;13.23;;;;;;;2.56;100.00;99971.00;5079098;28;20202;-78
2022/03/16 04:13:16;;;;;;;74.10;13.90;;;;;;;2.22;100.00;99976.84;5102625;28;20187;-78
2022/03/16 04:15:51;;;;;;;91.60;14.47;;;;;;;2.16;100.00;99979.56;5112913;28;20198;-78
2022/03/16 04:18:26;;;;;;;47.40;12.10;;;;;;;2.18;100.00;99975.16;5092189;28;20215;-78
2022/03/16 04:20:57;;;;;;;153.17;16.57;;;;;;;2.09;100.00;99974.44;5071743;28;20647;-78
2022/03/16 04:23:31;;;;;;;105.27;15.27;;;;;;;2.07;100.00;99977.09;5067251;28;20220;-78
2022/03/16 04:26:01;;;;;;;113.50;16.57;;;;;;;2.09;100.00;99980.53;5092374;27;20660;-78
2022/03/16 04:28:32;;;;;;;20.97;10.40;;;;;;;2.33;100.00;99973.19;5134290;27;20205;-78
2022/03/16 04:31:01;;;;;;;82.87;15.33;;;;;;;2.30;100.00;99974.09;5135857;27;20282;-78
2022/03/16 04:33:30;;;;;;;87.07;15.00;;;;;;;2.19;100.00;99976.03;5132892;27;20199;-78
2022/03/16 04:35:59;;;;;;;67.53;13.23;;;;;;;2.18;100.00;99983.00;5098728;27;20186;-78
2022/03/16 04:38:28;;;;;;;84.27;13.37;;;;;;;2.32;100.00;99980.16;5142542;27;20216;-78
2022/03/16 04:40:58;;;;;;;85.67;12.93;;;;;;;2.23;100.00;99988.16;5176347;27;20191;-78
2022/03/16 04:43:30;;;;;;;108.57;14.57;;;;;;;2.17;100.00;99990.88;5132456;27;20714;-78
2022/03/16 04:45:59;;;;;;;38.07;11.43;;;;;;;2.20;100.00;99993.41;5124316;27;20243;-78
2022/03/16 04:48:28;;;;;;;101.87;13.53;;;;;;;2.14;100.00;100004.84;5128581;27;20226;-78
2022/03/16 04:50:56;;;;;;;98.97;15.80;;;;;;;2.08;100.00;100004.09;5129139;27;20190;-78
2022/03/16 04:53:25;;;;;;;169.87;34.33;;;;;;;1.97;100.00;100002.50;5107760;27;20236;-78
2022/03/16 04:55:53;;;;;;;101.93;33.23;;;;;;;2.13;100.00;99990.06;5130760;27;20190;-78
2022/03/16 04:58:22;;;;;;;91.60;22.63;;;;;;;2.13;100.00;99990.06;5129834;27;20209;-78
2022/03/16 05:00:52;;;;;;;171.37;21.30;;;;;;;1.93;100.00;99997.34;5144413;27;20199;-78
2022/03/16 05:03:20;;;;;;;112.30;14.17;;;;;;;1.95;100.00;99996.44;5175601;27;20242;-78
2022/03/16 05:05:50;;;;;;;88.87;16.17;;;;;;;1.96;100.00;99998.16;5168615;27;20221;-78
2022/03/16 05:08:19;;;;;;;114.33;14.53;;;;;;;1.18;100.00;100008.84;5168342;27;20297;-78
2022/03/16 05:10:47;;;;;;;99.43;15.40;;;;;;;0.95;100.00;100014.31;5169566;27;20196;-78
2022/03/16 05:13:15;;;;;;;49.70;12.90;;;;;;;0.95;100.00;100014.31;5166912;27;20197;-78
2022/03/16 05:15:43;;;;;;;24.37;11.43;;;;;;;1.48;100.00;100004.97;5130641;27;20239;-78
2022/03/16 05:18:13;;;;;;;36.50;12.80;;;;;;;1.60;100.00;100020.47;5073244;28;20223;-78
2022/03/16 05:20:42;;;;;;;18.77;12.67;;;;;;;1.73;100.00;100018.53;5065277;28;20212;-78
2022/03/16 05:23:11;;;;;;;14.50;11.60;;;;;;;1.73;100.00;100023.75;5067596;28;20188;-78
2022/03/16 05:25:40;;;;;;;14.93;11.53;;;;;;;1.61;100.00;100026.53;5065789;28;20226;-78
2022/03/16 05:28:09;;;;;;;14.97;11.47;;;;;;;1.68;100.00;100029.06;5067706;28;20195;-78
2022/03/16 05:30:37;;;;;;;52.60;14.07;;;;;;;1.59;100.00;100036.16;5066151;28;20193;-78
2022/03/16 05:33:06;;;;;;;36.27;13.10;;;;;;;1.55;100.00;100037.94;5075218;28;20196;-77
2022/03/16 05:35:38;;;;;;;34.80;11.77;;;;;;;1.56;100.00;100041.41;5008331;28;20195;-78
2022/03/16 05:38:08;;;;;;;64.93;13.60;;;;;;;1.56;100.00;100041.41;5089457;28;20188;-78
2022/03/16 05:40:36;;;;;;;44.93;13.17;;;;;;;1.58;100.00;100035.28;5086618;28;20241;-78
2022/03/16 05:43:08;;;;;;;33.77;12.77;;;;;;;1.60;100.00;100043.09;5090888;28;20195;-78
2022/03/16 05:45:36;;;;;;;18.43;11.67;;;;;;;1.75;100.00;100042.03;5086904;28;20334;-77
2022/03/16 05:48:05;;;;;;;35.03;13.17;;;;;;;1.73;100.00;100049.88;5088313;28;20236;-78
2022/03/16 05:50:35;;;;;;;25.47;11.57;;;;;;;1.81;100.00;100050.63;5085667;28;20364;-78
2022/03/16 05:53:04;;;;;;;18.73;11.07;;;;;;;1.84;100.00;100052.34;5106678;27;20289;-78
2022/03/16 05:55:33;;;;;;;76.00;14.37;;;;;;;1.70;100.00;100053.38;5163353;27;20264;-78
2022/03/16 05:58:01;;;;;;;42.13;11.97;;;;;;;1.80;100.00;100045.44;5165362;27;20241;-78
2022/03/16 06:00:31;;;;;;;45.57;11.53;;;;;;;1.91;100.00;100056.56;5168461;27;20197;-78
2022/03/16 06:03:01;;;;;;;20.43;9.83;;;;;;;1.82;100.00;100060.19;5088800;28;20188;-78
2022/03/16 06:05:31;;;;;;;69.40;13.00;;;;;;;1.80;100.00;100056.72;5089468;28;20302;-79
2022/03/16 06:08:01;;;;;;;55.23;12.67;;;;;;;1.70;100.00;100063.84;5083784;28;20210;-78
2022/03/16 06:10:30;;;;;;;107.47;15.47;;;;;;;1.75;100.00;100060.31;5082134;28;20204;-78
2022/03/16 06:13:00;;;;;;;31.83;11.70;;;;;;;1.89;100.00;100066.19;5086229;28;20275;-78
2022/03/16 06:15:31;;;;;;;40.20;11.63;;;;;;;2.00;100.00;100061.66;5084610;28;20207;-78
2022/03/16 06:18:00;;;;;;;59.27;14.63;;;;;;;1.94;100.00;100064.41;5026180;28;20209;-78
2022/03/16 06:20:29;;;;;;;72.63;15.37;;;;;;;2.04;100.00;100057.28;5032708;28;20229;-78
2022/03/16 06:22:58;;;;;;;64.13;22.43;;;;;;;2.10;100.00;100055.41;5085412;28;20227;-78
2022/03/16 06:25:29;;;;;;;47.27;21.47;;;;;;;2.22;100.00;100049.13;5090687;28;20216;-78
2022/03/16 06:27:57;;;;;;;47.77;17.67;;;;;;;2.30;100.00;100055.09;5089585;28;20196;-78
2022/03/16 06:30:26;;;;;;;43.13;21.17;;;;;;;2.37;100.00;100067.19;5090893;28;20191;-78
2022/03/16 06:32:55;;;;;;;41.53;18.80;;;;;;;2.52;100.00;100066.97;5092090;28;20662;-78
2022/03/16 06:35:24;;;;;;;28.20;11.53;;;;;;;2.56;100.00;100063.41;5101286;27;20201;-77
2022/03/16 06:37:53;;;;;;;49.90;12.10;;;;;;;2.00;100.00;100072.97;5173472;27;20195;-78
2022/03/16 06:40:22;;;;;;;54.43;11.47;;;;;;;2.22;100.00;100076.16;5067192;28;20559;-78
2022/03/16 06:42:56;;;;;;;30.97;10.23;;;;;;;2.24;100.00;100078.75;5068211;28;20251;-78
2022/03/16 06:45:27;;;;;;;69.97;12.23;;;;;;;1.71;100.00;100077.75;5069692;28;20215;-78
2022/03/16 06:47:57;;;;;;;68.70;12.53;;;;;;;1.85;100.00;100074.97;5063938;28;20414;-78
2022/03/16 06:50:26;;;;;;;39.33;12.27;;;;;;;2.00;100.00;100074.75;5069000;28;20191;-78
2022/03/16 06:52:56;;;;;;;47.63;12.43;;;;;;;1.97;100.00;100078.25;5066497;28;20196;-79
2022/03/16 06:55:27;;;;;;;35.63;12.30;;;;;;;2.03;100.00;100082.56;5042532;28;20204;-78
2022/03/16 06:57:57;;;;;;;49.27;13.77;;;;;;;1.85;100.00;100078.44;5070957;27;20236;-80
2022/03/16 07:00:26;;;;;;;22.17;10.80;;;;;;;2.17;100.00;100095.41;5132249;27;20194;-78
2022/03/16 07:02:57;;;;;;;50.77;12.47;;;;;;;1.71;100.00;100081.22;5127438;27;20198;-78
2022/03/16 07:05:27;;;;;;;41.67;12.77;;;;;;;1.63;100.00;100090.03;5124597;27;20297;-78
2022/03/16 07:07:59;;;;;;;22.57;11.87;;;;;;;1.86;100.00;100090.63;5129810;27;20243;-78
2022/03/16 07:10:27;;;;;;;32.83;13.50;;;;;;;2.01;100.00;100087.78;5128555;27;20198;-78
2022/03/16 07:12:57;;;;;;;32.10;13.93;;;;;;;2.01;100.00;100087.78;5138193;27;20185;-79
2022/03/16 07:15:30;;;;;;;21.33;13.00;;;;;;;2.62;100.00;100091.22;5109205;28;20190;-78
2022/03/16 07:18:01;;;;;;;22.50;13.37;;;;;;;2.64;100.00;100084.19;5111458;28;20198;-78
2022/03/16 07:20:30;;;;;;;28.13;12.07;;;;;;;2.82;100.00;100089.13;5025691;28;20306;-78
2022/03/16 07:23:03;;;;;;;20.37;12.37;;;;;;;2.85;100.00;100088.19;5025800;28;20196;-78
2022/03/16 07:25:36;;;;;;;19.00;13.33;;;;;;;2.88;100.00;100094.22;5023536;28;20370;-78
2022/03/16 07:28:07;;;;;;;16.07;12.70;;;;;;;3.13;100.00;100083.31;5025961;28;20205;-78
2022/03/16 07:30:36;;;;;;;16.40;12.90;;;;;;;3.04;100.00;100092.19;5026985;28;20201;-78
2022/03/16 07:33:06;;;;;;;15.53;12.53;;;;;;;3.28;100.00;100090.88;5040356;28;20199;-78
2022/03/16 07:35:35;;;;;;;19.70;13.00;;;;;;;3.42;100.00;100091.47;5091209;28;20196;-78
2022/03/16 07:38:04;;;;;;;55.50;14.43;;;;;;;3.29;100.00;100090.00;5112700;27;20189;-78
2022/03/16 07:40:35;;;;;;;22.27;12.97;;;;;;;3.42;100.00;100086.22;5167528;27;20240;-78
2022/03/16 07:43:05;;;;;;;79.07;17.40;;;;;;;3.49;100.00;100096.59;5168770;27;20189;-78
2022/03/16 07:45:35;;;;;;;29.40;12.43;;;;;;;3.71;100.00;100084.78;5169279;27;20215;-78
2022/03/16 07:48:04;;;;;;;68.10;14.47;;;;;;;3.76;100.00;100087.28;5090611;28;20220;-78
2022/03/16 07:50:32;;;;;;;54.33;14.53;;;;;;;3.76;100.00;100087.28;5083769;28;20200;-78
2022/03/16 07:53:01;;;;;;;56.47;15.67;;;;;;;3.98;100.00;100075.44;5090187;28;20199;-78
2022/03/16 07:55:30;;;;;;;62.27;16.47;;;;;;;4.07;100.00;100080.50;5087429;28;20282;-79
2022/03/16 07:57:59;;;;;;;69.83;17.43;;;;;;;3.99;100.00;100088.50;5028141;28;20224;-78
2022/03/16 08:00:29;;;;;;;36.27;15.87;;;;;;;4.14;100.00;100082.06;5026196;28;20197;-79
2022/03/16 08:03:01;;;;;;;98.23;18.47;;;;;;;4.20;100.00;100079.28;5027958;28;20193;-79
2022/03/16 08:05:31;;;;;;;33.93;16.53;;;;;;;4.22;100.00;100093.22;5044471;28;20685;-77
2022/03/16 08:08:00;;;;;;;27.93;14.53;;;;;;;4.35;100.00;100087.72;5110457;28;20183;-77
2022/03/16 08:10:28;;;;;;;123.90;19.87;;;;;;;4.35;100.00;100099.06;5102956;28;20195;-77
2022/03/16 08:12:58;;;;;;;96.97;19.37;;;;;;;4.59;100.00;100094.97;5103524;28;20633;-77
2022/03/16 08:15:28;;;;;;;44.07;16.40;;;;;;;4.64;100.00;100097.50;5107380;28;20210;-77
2022/03/16 08:17:56;;;;;;;69.33;15.77;;;;;;;4.64;100.00;100097.50;5108916;28;20190;-77
2022/03/16 08:20:25;;;;;;;52.17;16.10;;;;;;;4.82;100.00;100092.63;5103830;28;20183;-77
2022/03/16 08:22:56;;;;;;;32.70;14.70;;;;;;;4.96;100.00;100091.44;5112394;28;20195;-77
2022/03/16 08:25:47;;;;;;;30.43;16.00;;;;;;;4.77;100.00;100094.53;5113641;28;20187;-76
2022/03/16 08:28:15;;;;;;;47.13;16.97;;;;;;;5.01;100.00;100087.75;5112408;28;20646;-77
2022/03/16 08:30:45;;;;;;;23.80;15.57;;;;;;;5.15;100.00;100090.91;5110388;28;20302;-77
2022/03/16 08:33:16;;;;;;;22.93;15.90;;;;;;;5.38;100.00;100100.78;5111649;28;20191;-77
2022/03/16 08:35:45;;;;;;;30.73;15.70;;;;;;;5.65;100.00;100099.13;5145764;27;20200;-77
2022/03/16 08:38:13;;;;;;;20.93;16.33;;;;;;;5.77;100.00;100097.91;5174501;27;20196;-77
2022/03/16 08:40:43;;;;;;;28.50;15.33;;;;;;;5.68;100.00;100093.78;5171036;27;20193;-77
2022/03/16 08:43:13;;;;;;;19.77;15.13;;;;;;;5.93;100.00;100090.47;5171998;27;20199;-78
2022/03/16 08:45:41;;;;;;;23.00;15.67;;;;;;;5.73;100.00;100091.91;5171756;27;20187;-77
2022/03/16 08:48:11;;;;;;;23.97;17.03;;;;;;;5.97;100.00;100085.06;5167030;27;20229;-77
2022/03/16 08:50:40;;;;;;;21.63;15.80;;;;;;;6.08;100.00;100087.41;5171136;27;20207;-77
2022/03/16 08:53:11;;;;;;;22.27;16.90;;;;;;;6.50;100.00;100079.03;5160643;27;20198;-77
2022/03/16 08:55:40;;;;;;;20.67;16.87;;;;;;;6.52;100.00;100078.06;5160708;27;20207;-77
2022/03/16 08:58:09;;;;;;;21.57;16.80;;;;;;;6.73;100.00;100076.50;5168660;27;20193;-77
2022/03/16 09:00:38;;;;;;;21.27;16.97;;;;;;;7.01;100.00;100080.84;5120405;27;20656;-77
2022/03/16 09:03:06;;;;;;;22.67;16.30;;;;;;;7.13;100.00;100080.41;5172848;27;20189;-77
2022/03/16 09:05:38;;;;;;;20.27;16.20;;;;;;;7.42;100.00;100087.25;5172254;27;20228;-77
2022/03/16 09:08:08;;;;;;;20.43;16.60;;;;;;;7.61;100.00;100082.19;5172411;27;20217;-77
2022/03/16 09:10:36;;;;;;;19.83;15.70;;;;;;;7.67;100.00;100074.06;5130234;27;20657;-77
2022/03/16 09:13:06;;;;;;;18.30;15.77;;;;;;;7.96;100.00;100072.94;5128052;27;20271;-77
2022/03/16 09:15:38;;;;;;;19.50;15.33;;;;;;;8.16;100.00;100069.53;5129050;27;20193;-77
2022/03/16 09:18:09;;;;;;;18.60;15.27;;;;;;;8.17;100.00;100079.16;5128926;27;20199;-78
2022/03/16 09:20:42;;;;;;;18.40;15.70;;;;;;;8.37;100.00;100071.34;5127483;27;20226;-77
2022/03/16 09:23:11;;;;;;;18.93;14.90;;;;;;;8.41;100.00;100072.09;5084626;27;20194;-77
2022/03/16 09:25:40;;;;;;;17.27;14.10;;;;;;;8.48;100.00;100070.91;5124825;27;20194;-77
2022/03/16 09:28:09;;;;;;;17.47;14.33;;;;;;;8.56;100.00;100072.31;5126266;27;20214;-77
2022/03/16 09:30:37;;;;;;;18.77;15.07;;;;;;;8.51;100.00;100074.31;5124171;27;20197;-76
2022/03/16 09:33:06;;;;;;;18.73;14.83;;;;;;;8.93;100.00;100073.44;5129880;27;20187;-77
2022/03/16 09:35:35;;;;;;;17.53;14.83;;;;;;;9.12;100.00;100079.66;5128564;27;20243;-77
2022/03/16 09:38:05;;;;;;;18.53;15.00;;;;;;;9.35;100.00;100083.06;5129547;27;20696;-77
2022/03/16 09:40:36;;;;;;;18.40;13.87;;;;;;;9.74;100.00;100062.75;5127029;27;20201;-77
2022/03/16 09:43:08;;;;;;;18.50;14.53;;;;;;;9.40;100.00;100052.84;5172822;27;20212;-78
2022/03/16 09:45:46;;;;;;;24.43;18.77;;;;;;;9.64;100.00;100047.38;5174514;27;20197;-78
2022/03/16 09:48:14;;;;;;;18.50;14.70;;;;;;;9.82;100.00;100041.22;5169790;27;20220;-77
2022/03/16 09:50:43;;;;;;;21.27;15.90;;;;;;;9.77;100.00;100031.81;5171668;27;20211;-78
2022/03/16 09:53:15;;;;;;;19.00;14.00;;;;;;;10.15;100.00;100024.69;5171524;27;20208;-77
2022/03/16 09:55:44;;;;;;;19.13;13.57;;;;;;;10.27;100.00;100022.34;5070964;28;20223;-77
2022/03/16 09:58:20;;;;;;;17.57;13.47;;;;;;;10.25;100.00;100015.41;5071686;28;20698;-77
2022/03/16 10:00:48;;;;;;;18.40;13.70;;;;;;;10.56;100.00;100014.75;5067902;28;20506;-78
2022/03/16 10:03:18;;;;;;;16.73;12.60;;;;;;;10.46;100.00;100011.69;5068603;28;20279;-78
2022/03/16 10:05:48;;;;;;;16.70;13.03;;;;;;;10.71;100.00;100010.44;5064793;28;20208;-78
2022/03/16 10:08:26;;;;;;;19.53;13.50;;;;;;;10.80;100.00;100008.19;5026845;28;20218;-78
2022/03/16 10:13:53;;;;;;;16.27;12.63;;;;;;;10.46;100.00;99997.59;5068284;28;20187;-78
2022/03/16 10:16:23;;;;;;;18.57;12.50;;;;;;;10.49;100.00;99994.78;5105672;28;20203;-78
2022/03/16 10:18:56;;;;;;;17.60;13.03;;;;;;;10.49;100.00;99998.28;5057842;28;20218;-78
2022/03/16 10:21:30;;;;;;;18.40;12.67;;;;;;;10.55;100.00;99998.00;5109656;28;20199;-77
2022/03/16 10:24:03;;;;;;;17.07;12.80;;;;;;;10.70;100.00;100003.44;5104577;28;20218;-78
2022/03/16 10:26:34;;;;;;;17.67;12.80;;;;;;;10.70;100.00;100001.63;5139254;27;20217;-78
2022/03/16 10:29:04;;;;;;;18.70;13.33;;;;;;;10.75;100.00;100004.06;5173761;27;20206;-77
2022/03/16 10:31:35;;;;;;;17.43;13.57;;;;;;;10.93;100.00;99997.81;5165185;27;20196;-77
2022/03/16 10:34:06;;;;;;;19.87;13.93;;;;;;;10.97;100.00;99993.22;5168601;27;20196;-78
2022/03/16 10:36:39;;;;;;;19.17;13.53;;;;;;;11.16;100.00;99994.81;5085810;28;20214;-78
2022/03/16 10:39:33;;;;;;;18.57;14.23;;;;;;;11.27;100.00;99988.09;5021581;27;21082;-78
2022/03/16 10:48:01;;;;;;;17.70;13.40;;;;;;;11.45;100.00;99977.34;5007516;28;20244;-78
2022/03/16 10:50:29;;;;;;;23.37;17.23;;;;;;;11.45;100.00;99976.47;5012669;28;20211;-78
2022/03/16 10:52:58;;;;;;;30.17;21.23;;;;;;;11.39;100.00;99985.66;5015498;28;20226;-78
2022/03/16 10:55:28;;;;;;;20.30;14.97;;;;;;;11.67;100.00;99982.31;5017036;28;20194;-78
2022/03/16 10:57:58;;;;;;;18.63;13.40;;;;;;;12.23;100.00;99982.75;5018332;28;20222;-79
2022/03/16 11:00:28;;;;;;;18.03;14.13;;;;;;;12.11;100.00;99981.66;5016270;28;20202;-78
2022/03/16 11:03:00;;;;;;;19.20;14.77;;;;;;;12.28;100.00;99991.31;5007601;28;20645;-79
2022/03/16 11:05:29;;;;;;;19.30;14.30;;;;;;;12.48;100.00;99982.19;5018905;28;20210;-79
2022/03/16 11:07:59;;;;;;;19.50;14.50;;;;;;;12.56;100.00;99983.47;5019166;28;20207;-78
2022/03/16 11:10:30;;;;;;;18.83;13.67;;;;;;;12.50;100.00;99973.19;5069592;28;20217;-79
2022/03/16 11:15:44;;;;;;;18.03;14.00;;;;;;;12.97;100.00;99963.31;5008301;28;20251;-78
2022/03/16 11:18:13;;;;;;;17.90;13.87;;;;;;;13.23;100.00;99967.09;5020656;28;20241;-79
2022/03/16 11:20:43;;;;;;;18.03;13.63;;;;;;;13.44;100.00;99971.06;5016867;28;20206;-79
2022/03/16 11:26:15;;;;;;;17.70;13.63;;;;;;;13.80;100.00;99956.34;5018684;28;20252;-79
2022/03/16 11:28:56;;;;;;;19.13;14.47;;;;;;;14.03;100.00;99953.06;5006641;28;20247;-79
2022/03/16 11:31:28;;;;;;;17.60;13.93;;;;;;;14.18;100.00;99949.34;5012258;28;20202;-78
2022/03/16 11:34:02;;;;;;;18.60;13.57;;;;;;;14.23;100.00;99949.06;5014441;28;20202;-79
2022/03/16 11:36:34;;;;;;;17.17;13.70;;;;;;;14.38;100.00;99944.50;5017835;28;20195;-79
2022/03/16 11:39:17;;;;;;;19.53;13.70;;;;;;;14.22;100.00;99942.03;5017980;28;20258;-78